Time;durP1;ratioP1;P1;durP2;ratioP2;P2;SDS_P1;SDS_P2;PMS_P1;PMS_P2;Temp;Humidity;BMP_temperature;BMP_pressure;BME280_temperature;BME280_humidity;BME280_pressure;Samples;Min_cycle;Max_cycle;Signal;HPM_P1;HPM_P2
2022/02/11 00:06:31;;;;;;;18.37;7.37;;;5.80;99.90;;;;;;5016620;28;20033;-75
2022/02/11 00:08:57;;;;;;;10.97;6.80;;;5.80;99.90;;;;;;5016564;28;20047;-75
2022/02/11 00:11:33;;;;;;;15.30;7.63;;;5.80;99.90;;;;;;5016457;28;20037;-76
2022/02/11 00:13:59;;;;;;;15.50;7.10;;;5.70;99.90;;;;;;5016779;28;20036;-75
2022/02/11 00:16:26;;;;;;;13.83;6.97;;;5.70;99.90;;;;;;5016328;28;20462;-75
2022/02/11 00:18:52;;;;;;;14.33;7.60;;;5.70;99.90;;;;;;5016247;28;20045;-75
2022/02/11 00:21:21;;;;;;;13.57;7.10;;;5.70;99.90;;;;;;5016094;28;20030;-75
2022/02/11 00:23:46;;;;;;;15.23;7.67;;;5.70;99.90;;;;;;5015988;28;20029;-75
2022/02/11 00:26:13;;;;;;;16.03;7.97;;;5.70;99.90;;;;;;5015907;28;20108;-75
2022/02/11 00:34:07;;;;;;;13.03;7.10;;;5.60;99.90;;;;;;5015884;28;20378;-75
2022/02/11 00:36:50;;;;;;;14.53;8.07;;;5.50;99.90;;;;;;5014502;28;20030;-75
2022/02/11 01:06:08;;;;;;;12.60;8.27;;;5.30;99.90;;;;;;5015591;28;20113;-75
2022/02/11 01:08:33;;;;;;;17.33;8.53;;;5.30;99.90;;;;;;5015112;28;20045;-75
2022/02/11 01:11:00;;;;;;;15.23;8.13;;;5.30;99.90;;;;;;5015072;28;20057;-75
2022/02/11 01:13:26;;;;;;;13.57;8.70;;;5.30;99.90;;;;;;5014966;28;20022;-75
2022/02/11 01:16:00;;;;;;;17.70;8.90;;;5.20;99.90;;;;;;5015389;28;20053;-75
2022/02/11 01:18:26;;;;;;;14.27;8.67;;;5.20;99.90;;;;;;4997245;28;20029;-75
2022/02/11 01:21:03;;;;;;;20.10;9.30;;;5.20;99.90;;;;;;5014885;28;20080;-75
2022/02/11 01:23:48;;;;;;;19.13;9.20;;;5.30;99.90;;;;;;5014396;28;20029;-75
2022/02/11 01:26:43;;;;;;;17.13;9.30;;;5.30;99.90;;;;;;5014933;28;20088;-75
2022/02/11 01:32:13;;;;;;;11.38;8.25;;;5.30;99.90;;;;;;5014597;28;20069;-74
2022/02/11 01:34:56;;;;;;;23.65;9.38;;;5.30;99.90;;;;;;5014217;28;20475;-74
2022/02/11 01:37:30;;;;;;;14.07;8.83;;;5.20;99.90;;;;;;5014461;28;20025;-75
2022/02/11 01:53:48;;;;;;;15.20;9.17;;;5.20;99.90;;;;;;5014107;28;20040;-75
2022/02/11 02:01:14;;;;;;;18.07;9.73;;;5.20;99.90;;;;;;5013630;28;20056;-75
2022/02/11 02:09:09;;;;;;;22.00;9.60;;;5.10;99.90;;;;;;4994532;28;20169;-75
2022/02/11 02:14:30;;;;;;;17.50;9.60;;;5.10;99.90;;;;;;4994202;28;20031;-75
2022/02/11 02:22:23;;;;;;;17.00;9.37;;;5.30;99.90;;;;;;4994041;28;20053;-74
2022/02/11 02:27:35;;;;;;;18.03;9.67;;;5.40;99.90;;;;;;4994301;28;20042;-75
2022/02/11 02:31:01;;;;;;;17.30;9.37;;;5.40;99.90;;;;;;4993981;28;20119;-75
2022/02/11 02:35:53;;;;;;;15.27;9.50;;;5.40;99.90;;;;;;4994101;28;20045;-75
2022/02/11 02:38:39;;;;;;;17.67;9.20;;;5.40;99.90;;;;;;4993523;28;20046;-75
2022/02/11 02:57:32;;;;;;;20.83;9.18;;;5.40;99.90;;;;;;5008621;28;20104;-75
2022/02/11 04:55:43;;;;;;;5.77;3.50;;;5.10;99.90;;;;;;4935162;29;20038;-75
2022/02/11 05:00:53;;;;;;;5.97;4.27;;;5.10;99.90;;;;;;4935103;29;20079;-75
2022/02/11 05:03:18;;;;;;;6.93;3.70;;;5.00;99.90;;;;;;4934828;29;20071;-75
2022/02/11 05:05:49;;;;;;;7.10;3.43;;;5.00;99.90;;;;;;4935130;29;20035;-74
2022/02/11 05:08:17;;;;;;;7.70;4.07;;;5.00;99.90;;;;;;5012855;28;20181;-74
2022/02/11 05:10:43;;;;;;;6.07;4.10;;;5.00;99.90;;;;;;5014511;28;20117;-74
2022/02/11 05:13:09;;;;;;;5.13;3.60;;;4.90;99.90;;;;;;5014566;28;20033;-74
2022/02/11 05:15:35;;;;;;;7.00;3.33;;;5.00;99.90;;;;;;5014478;28;20105;-75
2022/02/11 05:18:02;;;;;;;5.57;3.50;;;4.90;99.90;;;;;;5014074;28;20073;-74
2022/02/11 05:20:28;;;;;;;6.10;3.33;;;5.00;99.90;;;;;;5014395;28;20099;-74
2022/02/11 05:22:53;;;;;;;4.50;3.10;;;5.00;99.90;;;;;;5010005;28;20455;-75
2022/02/11 05:25:19;;;;;;;4.77;3.10;;;4.90;99.90;;;;;;4996315;28;20030;-74
2022/02/11 05:27:45;;;;;;;6.67;3.23;;;4.90;99.90;;;;;;5013761;28;20471;-75
2022/02/11 05:30:11;;;;;;;7.30;3.40;;;4.90;99.90;;;;;;5013858;28;20025;-75
2022/02/11 05:32:36;;;;;;;6.10;3.60;;;5.00;99.90;;;;;;5014109;28;20146;-74
2022/02/11 05:35:03;;;;;;;9.50;6.90;;;5.10;99.90;;;;;;5013829;28;20466;-75
2022/02/11 05:37:29;;;;;;;10.70;8.37;;;5.20;99.90;;;;;;5014321;28;20030;-75
2022/02/11 05:39:54;;;;;;;12.17;9.00;;;5.20;99.90;;;;;;5013882;28;20104;-74
2022/02/11 05:42:20;;;;;;;12.83;9.43;;;5.10;99.90;;;;;;5013613;28;20348;-75
2022/02/11 05:44:45;;;;;;;14.23;10.73;;;5.10;99.90;;;;;;5011583;28;20030;-75
2022/02/11 05:47:11;;;;;;;14.03;10.47;;;5.00;99.90;;;;;;5013695;28;20029;-75
2022/02/11 05:49:37;;;;;;;18.07;10.57;;;4.90;99.90;;;;;;5013694;28;20025;-75
2022/02/11 05:52:02;;;;;;;17.20;10.63;;;5.00;99.90;;;;;;5011396;28;20018;-74
2022/02/11 05:54:28;;;;;;;16.00;10.13;;;5.00;99.90;;;;;;4995875;28;20118;-75
2022/02/11 05:56:54;;;;;;;17.83;11.47;;;4.90;99.90;;;;;;4993317;28;20018;-74
2022/02/11 05:59:19;;;;;;;14.03;10.03;;;4.80;99.90;;;;;;5008454;28;20069;-74
2022/02/11 06:01:45;;;;;;;18.43;10.97;;;4.80;99.90;;;;;;5013426;28;20532;-75
2022/02/11 06:04:10;;;;;;;16.90;10.37;;;4.70;99.90;;;;;;5013659;28;20029;-75
2022/02/11 06:06:36;;;;;;;15.20;10.43;;;4.70;99.90;;;;;;5013802;28;20026;-77
2022/02/11 06:09:02;;;;;;;14.07;9.77;;;4.60;99.90;;;;;;4996176;28;20467;-77
2022/02/11 06:11:29;;;;;;;15.80;10.13;;;4.60;99.90;;;;;;4996413;28;20030;-76
2022/02/11 06:13:56;;;;;;;15.63;9.37;;;4.50;99.90;;;;;;5013936;28;20032;-75
2022/02/11 06:16:21;;;;;;;14.37;9.17;;;4.50;99.90;;;;;;4996481;28;20033;-76
2022/02/11 06:18:48;;;;;;;12.77;9.27;;;4.50;99.90;;;;;;4996937;28;20029;-76
2022/02/11 06:21:14;;;;;;;14.00;9.10;;;4.50;99.90;;;;;;5014430;28;20037;-76
2022/02/11 06:23:40;;;;;;;11.63;7.80;;;4.40;99.90;;;;;;5014145;28;20080;-77
2022/02/11 06:26:05;;;;;;;11.23;7.80;;;4.50;99.90;;;;;;5014228;28;20415;-76
2022/02/11 06:28:31;;;;;;;11.23;8.00;;;4.50;99.90;;;;;;4996216;28;20144;-77
2022/02/11 06:30:57;;;;;;;10.73;6.87;;;4.60;99.90;;;;;;4996243;28;20060;-76
2022/02/11 06:33:22;;;;;;;12.57;7.93;;;4.60;99.90;;;;;;5013952;28;20101;-76
2022/02/11 06:35:48;;;;;;;12.67;7.87;;;4.60;99.90;;;;;;5013744;28;20041;-77
2022/02/11 06:38:13;;;;;;;11.33;7.83;;;4.50;99.90;;;;;;5013406;28;20026;-76
2022/02/11 06:40:39;;;;;;;13.87;7.90;;;4.40;99.90;;;;;;5014125;28;20056;-76
2022/02/11 06:43:08;;;;;;;8.73;6.80;;;4.40;99.90;;;;;;5013710;28;20395;-76
2022/02/11 06:45:34;;;;;;;9.17;6.53;;;4.30;99.90;;;;;;5013445;28;20061;-75
2022/02/11 06:48:00;;;;;;;8.93;5.80;;;4.30;99.90;;;;;;5013782;28;20026;-76
2022/02/11 06:50:26;;;;;;;7.10;5.77;;;4.30;99.90;;;;;;4995963;28;20109;-76
2022/02/11 06:52:55;;;;;;;8.70;5.97;;;4.20;99.90;;;;;;4995725;28;20188;-76
2022/02/11 06:55:24;;;;;;;7.63;5.80;;;4.10;99.90;;;;;;5013705;28;20475;-76
2022/02/11 06:57:50;;;;;;;9.77;5.90;;;4.10;99.90;;;;;;5013450;28;20066;-76
2022/02/11 07:00:17;;;;;;;6.53;4.90;;;4.00;99.90;;;;;;4995749;28;20032;-76
2022/02/11 07:02:43;;;;;;;8.37;5.23;;;4.00;99.90;;;;;;5013567;28;20026;-76
2022/02/11 07:05:09;;;;;;;6.27;5.00;;;4.00;99.90;;;;;;4995621;28;20501;-76
2022/02/11 07:07:35;;;;;;;6.77;5.27;;;3.90;99.90;;;;;;4995969;28;20022;-76
2022/02/11 07:10:01;;;;;;;7.47;5.70;;;3.90;99.90;;;;;;4995589;28;20029;-76
2022/02/11 07:12:27;;;;;;;8.13;6.17;;;3.80;99.90;;;;;;5013952;28;20028;-76
2022/02/11 07:14:52;;;;;;;7.47;5.93;;;3.90;99.90;;;;;;5013407;28;20029;-76
2022/02/11 07:17:18;;;;;;;10.80;7.13;;;3.90;99.90;;;;;;5012951;28;20034;-76
2022/02/11 07:19:44;;;;;;;8.27;6.20;;;3.80;99.90;;;;;;5013268;28;20049;-76
2022/02/11 07:22:09;;;;;;;9.07;6.67;;;3.80;99.90;;;;;;5012966;28;20058;-76
2022/02/11 07:24:35;;;;;;;7.83;6.33;;;3.90;99.90;;;;;;5013221;28;20517;-76
2022/02/11 07:27:01;;;;;;;8.77;5.73;;;4.00;99.90;;;;;;5013001;28;20022;-76
2022/02/11 07:29:26;;;;;;;6.63;5.07;;;4.00;99.90;;;;;;5013452;28;20038;-76
2022/02/11 07:31:52;;;;;;;9.63;5.50;;;4.00;99.90;;;;;;5012889;28;20026;-76
2022/02/11 07:34:17;;;;;;;5.93;4.70;;;4.00;99.90;;;;;;5011724;28;20054;-76
2022/02/11 07:36:43;;;;;;;6.33;4.00;;;4.00;99.90;;;;;;5012194;28;20053;-76
2022/02/11 07:39:09;;;;;;;4.63;3.70;;;4.00;99.90;;;;;;5013168;28;20080;-75
2022/02/11 07:41:35;;;;;;;3.87;3.40;;;4.00;99.90;;;;;;5013282;28;20053;-76
2022/02/11 07:44:00;;;;;;;3.40;2.77;;;3.90;99.90;;;;;;5011862;28;20021;-76
2022/02/11 07:46:26;;;;;;;3.23;2.60;;;3.90;99.90;;;;;;5016047;28;20061;-76
2022/02/11 07:48:52;;;;;;;3.40;2.90;;;3.90;99.90;;;;;;5016839;28;20467;-76
2022/02/11 07:51:18;;;;;;;3.03;2.60;;;3.80;99.90;;;;;;5017029;28;20053;-76
2022/02/11 07:53:45;;;;;;;4.03;3.43;;;3.80;99.90;;;;;;4999080;28;20120;-76
2022/02/11 07:56:12;;;;;;;3.53;2.80;;;3.80;99.90;;;;;;5015417;28;20459;-76
2022/02/11 07:58:38;;;;;;;3.43;2.63;;;3.80;99.90;;;;;;5016917;28;20374;-76
2022/02/11 08:01:04;;;;;;;3.67;3.00;;;3.60;99.90;;;;;;5016574;28;20022;-76
2022/02/11 08:03:30;;;;;;;3.30;2.63;;;3.60;99.90;;;;;;5016420;28;20041;-77
2022/02/11 08:05:56;;;;;;;3.07;2.50;;;3.50;99.90;;;;;;5016252;28;20106;-76
2022/02/11 08:08:26;;;;;;;2.77;2.13;;;3.50;99.90;;;;;;5016390;28;20022;-76
2022/02/11 08:10:53;;;;;;;6.77;2.43;;;3.50;99.90;;;;;;5016608;28;20041;-76
2022/02/11 08:13:20;;;;;;;2.70;2.30;;;3.50;99.90;;;;;;4999324;28;20030;-76
2022/02/11 08:15:47;;;;;;;3.77;2.20;;;3.40;99.90;;;;;;5016344;28;20373;-85
2022/02/11 08:18:12;;;;;;;3.00;2.40;;;3.50;99.90;;;;;;5016498;28;20422;-84
2022/02/11 08:20:38;;;;;;;2.60;2.40;;;3.50;99.90;;;;;;5016215;28;20034;-84
2022/02/11 08:23:03;;;;;;;2.80;2.37;;;3.40;99.90;;;;;;5016231;28;20375;-85
2022/02/11 08:25:31;;;;;;;3.50;2.87;;;3.20;99.90;;;;;;5016068;28;20030;-85
2022/02/11 08:28:00;;;;;;;3.70;2.90;;;3.20;99.90;;;;;;5015795;28;20045;-86
2022/02/11 08:30:25;;;;;;;3.93;2.80;;;3.10;99.90;;;;;;4998451;28;20018;-85
2022/02/11 08:32:51;;;;;;;3.93;2.70;;;3.10;99.90;;;;;;5016149;28;20100;-85
2022/02/11 08:35:17;;;;;;;2.93;2.60;;;3.10;99.90;;;;;;5016206;28;20037;-85
2022/02/11 08:37:42;;;;;;;3.17;2.87;;;3.10;99.90;;;;;;5016735;28;20363;-84
2022/02/11 08:40:09;;;;;;;3.90;3.00;;;3.10;99.90;;;;;;5016054;28;20057;-84
2022/02/11 08:42:34;;;;;;;3.40;2.83;;;3.10;99.90;;;;;;5015685;28;20041;-83
2022/02/11 08:45:01;;;;;;;3.20;2.60;;;3.00;99.90;;;;;;5016728;28;20030;-85
2022/02/11 08:47:26;;;;;;;4.17;2.93;;;3.00;99.90;;;;;;5016088;28;20018;-84
2022/02/11 08:49:52;;;;;;;3.40;2.77;;;3.00;99.90;;;;;;5016432;28;20018;-85
2022/02/11 08:52:17;;;;;;;3.70;2.87;;;3.00;99.90;;;;;;5016081;28;20033;-86
2022/02/11 08:54:43;;;;;;;3.13;2.60;;;3.00;99.90;;;;;;4997933;28;20383;-84
2022/02/11 08:57:08;;;;;;;3.33;2.70;;;3.00;99.90;;;;;;5014964;28;20026;-85
2022/02/11 08:59:36;;;;;;;3.67;3.27;;;3.00;99.90;;;;;;5016265;28;20055;-85
2022/02/11 09:02:08;;;;;;;4.53;3.57;;;3.10;99.90;;;;;;4997608;28;20102;-84
2022/02/11 09:04:36;;;;;;;3.60;2.63;;;3.20;99.90;;;;;;5015688;28;20105;-85
2022/02/11 09:07:02;;;;;;;3.20;2.60;;;3.30;99.90;;;;;;5015937;28;20026;-84
2022/02/11 09:09:28;;;;;;;3.07;2.53;;;3.40;99.90;;;;;;5015441;28;20032;-84
2022/02/11 09:11:54;;;;;;;3.50;3.10;;;3.30;99.90;;;;;;5015634;28;20024;-84
2022/02/11 09:14:19;;;;;;;3.87;2.70;;;3.30;99.90;;;;;;5015323;28;20018;-85
2022/02/11 09:16:45;;;;;;;4.37;2.60;;;3.40;99.90;;;;;;5015322;28;20471;-83
2022/02/11 09:19:10;;;;;;;2.90;2.60;;;3.40;99.90;;;;;;5015922;28;20054;-84
2022/02/11 09:21:37;;;;;;;4.13;2.70;;;3.60;99.90;;;;;;5016611;28;20021;-85
2022/02/11 09:24:03;;;;;;;3.30;3.00;;;3.80;99.90;;;;;;4997808;28;20044;-85
2022/02/11 09:26:29;;;;;;;3.10;2.80;;;4.00;99.90;;;;;;5015585;28;20097;-85
2022/02/11 09:28:54;;;;;;;4.50;2.80;;;4.00;99.90;;;;;;5015491;28;20022;-85
2022/02/11 09:31:26;;;;;;;4.07;3.20;;;4.00;99.90;;;;;;5015771;28;20158;-84
2022/02/11 09:33:52;;;;;;;3.83;3.50;;;4.00;99.90;;;;;;5014858;28;20022;-85
2022/02/11 09:36:19;;;;;;;4.33;3.70;;;4.00;99.90;;;;;;5015533;28;20538;-85
2022/02/11 09:38:44;;;;;;;4.03;3.60;;;4.10;99.90;;;;;;5015292;28;20038;-85
2022/02/11 09:41:11;;;;;;;6.37;4.30;;;4.30;99.90;;;;;;5015186;28;20099;-84
2022/02/11 09:43:38;;;;;;;4.53;3.30;;;4.40;99.90;;;;;;5015260;28;20026;-85
2022/02/11 09:46:06;;;;;;;4.93;4.07;;;4.50;99.90;;;;;;5015788;28;20061;-85
2022/02/11 09:48:32;;;;;;;6.00;3.63;;;4.40;99.90;;;;;;5016204;28;20378;-85
2022/02/11 09:50:59;;;;;;;5.07;3.93;;;4.30;99.90;;;;;;5014554;28;20018;-85
2022/02/11 09:53:27;;;;;;;5.80;3.70;;;4.30;99.90;;;;;;4996964;28;20368;-85
2022/02/11 09:55:54;;;;;;;3.77;3.30;;;4.50;99.90;;;;;;5014996;28;20033;-85
2022/02/11 09:58:20;;;;;;;5.47;2.60;;;4.60;99.90;;;;;;5015008;28;20032;-85
2022/02/11 10:00:48;;;;;;;3.53;2.60;;;4.60;99.90;;;;;;5018242;28;20514;-85
2022/02/11 10:03:18;;;;;;;3.43;2.53;;;4.60;99.90;;;;;;4998362;28;20022;-86
2022/02/11 10:05:46;;;;;;;2.70;2.30;;;4.60;99.90;;;;;;5017395;28;20024;-85
2022/02/11 10:08:12;;;;;;;6.87;3.10;;;4.60;99.90;;;;;;5017684;28;20381;-85
2022/02/11 10:10:42;;;;;;;4.03;2.70;;;4.50;99.90;;;;;;5015565;28;20097;-85
2022/02/11 10:13:14;;;;;;;5.70;2.93;;;4.40;99.90;;;;;;4998487;28;20037;-85
2022/02/11 10:15:43;;;;;;;3.13;2.50;;;4.30;99.90;;;;;;5016267;28;20514;-86
2022/02/11 10:18:10;;;;;;;3.80;2.67;;;4.20;99.90;;;;;;5017090;28;20030;-86
2022/02/11 10:20:48;;;;;;;4.93;2.73;;;4.10;99.90;;;;;;5000020;28;20034;-86
2022/02/11 10:23:17;;;;;;;4.73;2.70;;;4.10;99.90;;;;;;5015683;28;20117;-85
2022/02/11 10:25:52;;;;;;;3.77;2.70;;;3.90;99.90;;;;;;5016543;28;20025;-84
2022/02/11 10:28:23;;;;;;;;;;;4.00;99.90;;;;;;5007898;28;20034;-81
2022/02/11 10:31:03;;;;;;;5.90;2.77;;;3.90;99.90;;;;;;5007099;28;19909;-80
2022/02/11 10:33:46;;;;;;;5.73;3.37;;;3.80;99.90;;;;;;5006703;28;20482;-81
2022/02/11 10:36:23;;;;;;;4.80;3.10;;;3.80;99.90;;;;;;4995567;28;20029;-81
2022/02/11 10:39:04;;;;;;;5.50;3.13;;;3.80;99.90;;;;;;5006509;28;20126;-82
2022/02/11 10:41:32;;;;;;;4.93;3.47;;;3.70;99.90;;;;;;5008594;28;20038;-80
2022/02/11 10:44:07;;;;;;;5.13;3.73;;;3.80;99.90;;;;;;5008034;28;20064;-80
2022/02/11 10:46:36;;;;;;;5.00;3.27;;;3.90;99.90;;;;;;5010128;28;20075;-80
2022/02/11 10:49:02;;;;;;;6.77;3.70;;;4.10;99.90;;;;;;5010839;28;20425;-80
2022/02/11 10:51:29;;;;;;;6.30;3.50;;;4.10;99.90;;;;;;5006694;28;20030;-80
2022/02/11 10:53:54;;;;;;;3.37;3.00;;;4.10;99.90;;;;;;5013420;28;20077;-89
2022/02/11 10:56:22;;;;;;;4.17;2.97;;;4.30;99.90;;;;;;5014455;28;20466;-91
2022/02/11 10:58:56;;;;;;;5.50;3.23;;;4.20;99.90;;;;;;5014471;28;20904;-90
2022/02/11 11:01:25;;;;;;;5.53;3.27;;;4.30;99.90;;;;;;5014605;28;20092;-91
2022/02/11 11:03:51;;;;;;;6.13;3.27;;;4.20;99.90;;;;;;5014448;28;20037;-90
2022/02/11 11:06:18;;;;;;;5.37;3.13;;;4.20;99.90;;;;;;4996366;28;20030;-91
2022/02/11 11:08:46;;;;;;;5.27;2.93;;;4.30;99.90;;;;;;4995179;28;20022;-90
2022/02/11 11:11:12;;;;;;;10.03;2.80;;;4.30;99.90;;;;;;4996297;28;20072;-77
2022/02/11 11:13:40;;;;;;;6.57;3.03;;;4.20;99.90;;;;;;4995458;28;20401;-77
2022/02/11 11:16:09;;;;;;;6.27;2.60;;;4.00;99.90;;;;;;5013084;28;20053;-78
2022/02/11 11:18:37;;;;;;;4.53;2.40;;;4.10;99.90;;;;;;5012267;28;20497;-66
2022/02/11 11:21:06;;;;;;;3.93;2.50;;;4.30;99.90;;;;;;5008960;28;20030;-67
2022/02/11 11:23:33;;;;;;;3.30;2.20;;;4.40;99.90;;;;;;5009552;28;20425;-67
2022/02/11 11:26:09;;;;;;;9.40;3.37;;;4.50;99.90;;;;;;5010682;28;20018;-81
2022/02/11 11:28:48;;;;;;;4.10;2.65;;;4.60;99.90;;;;;;5011975;28;20105;-84
2022/02/11 11:31:34;;;;;;;5.70;2.60;;;4.60;99.90;;;;;;5011575;28;20156;-80
2022/02/11 11:34:18;;;;;;;5.03;2.23;;;4.80;99.90;;;;;;5008082;28;20123;-79
2022/02/11 11:36:51;;;;;;;3.37;2.10;;;5.10;99.90;;;;;;5011010;28;20036;-79
2022/02/11 11:39:18;;;;;;;2.90;1.90;;;5.40;99.90;;;;;;5011162;28;20419;-80
2022/02/11 11:41:57;;;;;;;5.07;1.90;;;5.50;99.90;;;;;;5011783;28;20022;-79
2022/02/11 11:44:24;;;;;;;5.53;3.33;;;5.60;99.90;;;;;;5010435;28;20383;-79
2022/02/11 11:46:52;;;;;;;4.00;2.07;;;5.70;99.90;;;;;;4996486;28;20014;-79
2022/02/11 11:49:25;;;;;;;5.37;1.80;;;5.90;99.90;;;;;;5011256;28;20030;-80
2022/02/11 11:51:50;;;;;;;4.23;2.03;;;5.80;99.90;;;;;;5011164;28;20120;-80
2022/02/11 11:54:16;;;;;;;6.53;2.10;;;5.50;99.90;;;;;;5011094;28;20022;-80
2022/02/11 11:57:10;;;;;;;7.20;2.07;;;5.50;99.90;;;;;;5011721;28;20076;-79
2022/02/11 11:59:50;;;;;;;4.03;1.90;;;5.70;99.90;;;;;;5011846;28;20489;-79
2022/02/11 12:02:24;;;;;;;7.73;2.27;;;5.80;99.90;;;;;;5006826;28;20087;-81
2022/02/11 12:04:54;;;;;;;7.90;2.20;;;5.60;99.90;;;;;;5009582;28;20018;-80
2022/02/11 12:07:21;;;;;;;4.63;2.23;;;5.40;99.90;;;;;;5009118;28;20034;-80
2022/02/11 12:09:49;;;;;;;3.67;2.10;;;5.10;99.90;;;;;;5008920;28;20026;-81
2022/02/11 12:12:22;;;;;;;7.20;2.13;;;4.90;99.90;;;;;;5008516;28;20029;-81
2022/02/11 12:14:51;;;;;;;4.80;2.50;;;4.80;99.90;;;;;;5008950;28;20026;-81
2022/02/11 12:17:18;;;;;;;4.97;2.53;;;4.60;99.90;;;;;;5008310;28;20021;-81
2022/02/11 12:19:45;;;;;;;7.23;2.20;;;4.60;99.90;;;;;;5008869;28;20022;-81
2022/02/11 12:22:15;;;;;;;7.90;2.83;;;4.60;99.90;;;;;;5008950;28;20033;-82
2022/02/11 12:27:34;;;;;;;7.73;2.70;;;5.10;99.90;;;;;;5009302;28;20041;-81
2022/02/11 12:30:22;;;;;;;4.20;2.10;;;5.50;99.90;;;;;;5008050;28;20071;-81
2022/02/11 12:32:53;;;;;;;9.10;2.30;;;5.90;99.90;;;;;;5005087;28;20034;-81
2022/02/11 12:35:27;;;;;;;5.23;2.03;;;6.50;99.90;;;;;;4995725;28;20053;-81
2022/02/11 12:37:53;;;;;;;3.70;1.80;;;6.60;99.90;;;;;;5004564;28;20041;-81
2022/02/11 12:40:27;;;;;;;4.83;1.90;;;6.50;99.90;;;;;;5002586;28;20058;-81
2022/02/11 12:42:55;;;;;;;5.33;1.60;;;6.40;99.90;;;;;;5008462;28;20402;-81
2022/02/11 12:45:26;;;;;;;3.63;1.80;;;6.20;99.90;;;;;;5011147;28;20026;-80
2022/02/11 12:47:53;;;;;;;4.00;1.57;;;6.30;99.90;;;;;;5010340;28;20034;-81
2022/02/11 12:50:30;;;;;;;4.00;1.73;;;6.30;99.90;;;;;;4992944;28;20034;-80
2022/02/11 12:53:01;;;;;;;4.23;2.00;;;6.30;99.90;;;;;;4993081;28;20513;-80
2022/02/11 12:55:30;;;;;;;4.57;1.50;;;6.30;99.90;;;;;;5010375;28;20030;-81
2022/02/11 12:57:58;;;;;;;7.17;1.63;;;6.40;99.90;;;;;;5010424;28;20061;-81
2022/02/11 13:00:25;;;;;;;2.73;1.50;;;6.40;99.90;;;;;;5008977;28;20022;-83
2022/02/11 13:02:56;;;;;;;3.63;1.77;;;6.30;99.90;;;;;;5001612;28;20026;-80
2022/02/11 13:05:24;;;;;;;6.37;2.00;;;6.30;99.90;;;;;;5010614;28;20510;-81
2022/02/11 13:07:53;;;;;;;5.40;1.67;;;6.60;99.90;;;;;;4992557;28;20447;-81
2022/02/11 13:10:23;;;;;;;3.07;1.60;;;6.70;99.90;;;;;;4992664;28;20050;-80
2022/02/11 13:12:51;;;;;;;2.90;1.90;;;6.90;99.90;;;;;;5009975;28;20408;-81
2022/02/11 13:15:19;;;;;;;4.90;1.63;;;6.60;99.90;;;;;;5010190;28;20038;-80
2022/02/11 13:17:47;;;;;;;5.93;1.80;;;6.30;99.90;;;;;;5009459;28;20038;-80
2022/02/11 13:20:20;;;;;;;5.40;1.90;;;6.10;99.90;;;;;;5007341;28;20049;-80
2022/02/11 13:22:48;;;;;;;3.97;1.53;;;6.00;99.90;;;;;;5009578;28;20121;-82
2022/02/11 13:25:14;;;;;;;5.10;1.83;;;6.10;99.90;;;;;;4989816;28;20598;-80
2022/02/11 13:27:40;;;;;;;6.47;1.70;;;6.30;99.90;;;;;;5008230;28;20026;-79
2022/02/11 13:30:06;;;;;;;4.70;1.80;;;6.70;99.90;;;;;;5008115;28;20072;-78
2022/02/11 13:32:32;;;;;;;5.47;1.87;;;6.80;99.90;;;;;;5008641;28;20049;-80
2022/02/11 13:35:02;;;;;;;4.07;1.70;;;6.80;99.90;;;;;;5008573;28;20486;-80
2022/02/11 13:37:45;;;;;;;6.67;2.10;;;6.60;99.90;;;;;;5008680;28;20029;-78
2022/02/11 13:40:18;;;;;;;4.87;1.83;;;6.40;99.90;;;;;;5010395;28;20054;-75
2022/02/11 13:42:59;;;;;;;5.60;1.70;;;6.20;99.90;;;;;;5009242;28;20057;-79
2022/02/11 13:45:27;;;;;;;6.60;1.73;;;6.10;99.90;;;;;;5013073;28;20030;-76
2022/02/11 13:48:07;;;;;;;4.53;1.53;;;5.90;99.90;;;;;;5012392;28;20109;-76
2022/02/11 13:51:03;;;;;;;6.20;1.97;;;5.80;99.90;;;;;;5011566;28;20026;-76
2022/02/11 13:53:38;;;;;;;8.23;1.80;;;5.70;99.90;;;;;;4996484;28;20037;-76
2022/02/11 13:56:10;;;;;;;3.88;1.73;;;5.50;99.90;;;;;;5012823;28;20061;-76
2022/02/11 13:58:37;;;;;;;4.23;1.60;;;5.50;99.90;;;;;;4992587;28;20045;-76
2022/02/11 14:01:03;;;;;;;5.07;1.90;;;5.70;99.90;;;;;;5013144;28;20104;-76
2022/02/11 14:03:30;;;;;;;7.00;1.73;;;5.70;99.90;;;;;;4974175;28;20072;-79
2022/02/11 14:06:02;;;;;;;3.40;2.07;;;5.70;99.90;;;;;;4995892;28;20450;-79
2022/02/11 14:08:42;;;;;;;5.53;2.50;;;5.70;99.90;;;;;;5007553;28;20108;-78
2022/02/11 14:11:09;;;;;;;7.40;1.90;;;5.50;99.90;;;;;;5007820;28;20026;-78
2022/02/11 14:13:35;;;;;;;7.47;1.70;;;5.60;99.90;;;;;;5006807;28;20479;-78
2022/02/11 14:16:00;;;;;;;6.73;2.60;;;5.60;99.90;;;;;;5007315;28;20037;-79
2022/02/11 14:18:26;;;;;;;4.93;1.80;;;5.50;99.90;;;;;;5006821;28;20044;-79
2022/02/11 14:20:51;;;;;;;8.57;2.13;;;5.50;99.90;;;;;;4990003;28;20041;-79
2022/02/11 14:23:18;;;;;;;4.87;1.70;;;5.40;99.90;;;;;;5006458;28;20203;-79
2022/02/11 14:25:46;;;;;;;5.53;1.87;;;5.40;99.90;;;;;;5007513;28;20101;-79
2022/02/11 14:28:13;;;;;;;3.17;1.37;;;5.50;99.90;;;;;;5006959;28;20120;-79
2022/02/11 14:30:39;;;;;;;2.43;1.40;;;5.40;99.90;;;;;;5007206;28;20047;-79
2022/02/11 14:33:05;;;;;;;3.20;1.40;;;5.30;99.90;;;;;;4989281;28;20034;-79
2022/02/11 14:35:31;;;;;;;3.90;2.00;;;5.30;99.90;;;;;;5006887;28;20033;-79
2022/02/11 14:37:56;;;;;;;3.97;1.67;;;5.30;99.90;;;;;;5007108;28;20040;-76
2022/02/11 14:40:22;;;;;;;12.60;2.40;;;5.20;99.90;;;;;;4989291;28;20034;-77
2022/02/11 14:42:49;;;;;;;3.20;1.40;;;5.30;99.90;;;;;;5006734;28;20048;-66
2022/02/11 14:45:14;;;;;;;2.97;1.63;;;5.40;99.90;;;;;;5006628;28;20088;-77
2022/02/11 14:47:40;;;;;;;5.37;1.60;;;5.60;99.90;;;;;;4989593;28;20034;-77
2022/02/11 14:50:07;;;;;;;4.30;1.57;;;5.60;99.90;;;;;;5006989;28;20100;-79
2022/02/11 14:52:33;;;;;;;5.87;1.83;;;5.80;99.90;;;;;;5007341;28;20586;-75
2022/02/11 14:54:59;;;;;;;4.67;2.00;;;5.60;99.90;;;;;;5005799;28;20577;-77
2022/02/11 14:57:27;;;;;;;6.47;1.83;;;5.80;99.90;;;;;;5006598;28;20120;-77
2022/02/11 14:59:52;;;;;;;2.40;1.40;;;5.70;99.90;;;;;;5006691;28;20034;-77
2022/02/11 15:02:18;;;;;;;6.67;2.13;;;5.90;99.90;;;;;;4996286;28;20096;-78
2022/02/11 15:04:46;;;;;;;4.90;2.03;;;5.90;99.90;;;;;;5000177;28;20024;-77
2022/02/11 15:07:12;;;;;;;5.50;1.87;;;5.90;99.90;;;;;;4988613;28;20018;-78
2022/02/11 15:09:38;;;;;;;5.53;1.80;;;5.80;99.90;;;;;;5007325;28;20105;-77
2022/02/11 15:12:04;;;;;;;4.47;1.70;;;5.90;99.90;;;;;;5006764;28;20133;-77
2022/02/11 15:14:30;;;;;;;2.77;1.30;;;5.90;99.90;;;;;;5006079;28;20025;-76
2022/02/11 15:16:56;;;;;;;4.73;1.50;;;5.80;99.90;;;;;;4989398;28;20036;-76
2022/02/11 15:19:24;;;;;;;4.80;1.43;;;5.70;99.90;;;;;;5006249;28;20447;-76
2022/02/11 15:21:51;;;;;;;4.87;1.80;;;5.80;99.90;;;;;;5003899;28;20108;-77
2022/02/11 15:24:16;;;;;;;6.53;2.13;;;5.70;99.90;;;;;;5002485;28;20109;-78
2022/02/11 15:26:42;;;;;;;4.80;1.47;;;5.70;99.90;;;;;;5006446;28;20022;-77
2022/02/11 15:29:08;;;;;;;3.60;1.43;;;5.60;99.90;;;;;;5006303;28;20116;-78
2022/02/11 15:31:36;;;;;;;5.07;1.63;;;5.60;99.90;;;;;;5007155;28;20462;-78
2022/02/11 15:34:02;;;;;;;5.07;1.50;;;5.40;99.90;;;;;;5006730;28;20061;-78
2022/02/11 15:36:28;;;;;;;5.47;2.20;;;5.20;99.90;;;;;;5006807;28;20033;-78
2022/02/11 15:38:53;;;;;;;4.77;1.70;;;5.00;99.90;;;;;;5007211;28;20052;-78
2022/02/11 15:41:19;;;;;;;5.43;1.80;;;5.00;99.90;;;;;;5007552;28;20056;-78
2022/02/11 15:43:45;;;;;;;5.90;1.90;;;4.90;99.90;;;;;;4989343;28;20053;-78
2022/02/11 15:46:11;;;;;;;5.90;1.63;;;4.80;99.90;;;;;;5006970;28;20032;-78
2022/02/11 15:48:41;;;;;;;4.90;1.80;;;4.70;99.90;;;;;;5006931;28;20037;-78
2022/02/11 15:51:09;;;;;;;7.57;2.30;;;4.60;99.90;;;;;;5005323;28;20032;-79
2022/02/11 15:53:35;;;;;;;4.63;1.50;;;4.50;99.90;;;;;;5006734;28;20026;-78
2022/02/11 15:56:02;;;;;;;4.00;1.63;;;4.50;99.90;;;;;;5009060;28;20038;-78
2022/02/11 15:58:28;;;;;;;5.67;1.77;;;4.40;99.90;;;;;;5007243;28;20025;-79
2022/02/11 16:00:53;;;;;;;5.93;2.03;;;4.40;99.90;;;;;;5009484;28;20048;-79
2022/02/11 16:03:19;;;;;;;4.47;1.70;;;4.30;99.90;;;;;;5006978;28;20022;-79
2022/02/11 16:05:45;;;;;;;4.57;1.47;;;4.30;99.90;;;;;;4988902;28;20442;-79
2022/02/11 16:08:10;;;;;;;4.67;1.60;;;4.20;99.90;;;;;;5009606;28;20030;-80
2022/02/11 16:10:36;;;;;;;7.33;1.80;;;4.10;99.90;;;;;;5009596;28;20030;-80
2022/02/11 16:13:02;;;;;;;5.63;2.10;;;4.00;99.90;;;;;;5010029;28;20068;-80
2022/02/11 16:15:28;;;;;;;5.53;1.80;;;3.90;99.90;;;;;;5010658;28;20030;-80
2022/02/11 16:18:00;;;;;;;5.97;2.07;;;3.80;99.90;;;;;;5010123;28;20041;-80
2022/02/11 16:20:36;;;;;;;5.10;1.80;;;3.70;99.90;;;;;;5010534;28;20076;-80
2022/02/11 16:23:06;;;;;;;8.53;2.00;;;3.60;99.90;;;;;;5010390;28;20026;-80
2022/02/11 16:25:32;;;;;;;6.17;1.87;;;3.50;99.90;;;;;;5010553;28;20108;-80
2022/02/11 16:27:58;;;;;;;7.20;2.13;;;3.40;99.90;;;;;;4992288;28;20530;-80
2022/02/11 16:30:24;;;;;;;8.50;2.00;;;3.50;99.90;;;;;;5010535;28;20029;-79
2022/02/11 16:32:50;;;;;;;5.67;1.87;;;3.40;99.90;;;;;;5010080;28;20061;-79
2022/02/11 16:35:20;;;;;;;8.43;2.00;;;3.30;99.90;;;;;;5010630;28;20032;-80
2022/02/11 16:37:46;;;;;;;6.07;1.83;;;3.20;99.90;;;;;;5010761;28;20415;-78